Santanopolis, Brazil
Current Conditions -  °F | °C
As of 1:00 AM on Thursday 23 Oct 2014 (Local Time) from SBSV Reporting Station
Scattered Clouds Scattered Clouds  
Wind Chill: 77°   Ceiling: Unl
Heat Index: 79°   Visibility: 6mi
Dew Point: 66°   Wind: 10mph
Humidity: 69%   Direction: 160°SSE
Pressure: 30.03"   Gusts: NA
Location:  12.03°S, 38.86°W
Report Text: SBSV 230400Z 16009KT 9999 SCT017 25/19 Q1017
Loading
Personal Weather Stations






























Interactive Weather Map
Tropical Storm Tracking
New forecast layout! Learn more

10-Day Weather Forecast

Advertisements
Track Severe Weather on mobile